Terminal Aerodrome Forecast
Issued by NWS Bismarck, ND

Home | Current Version | Previous Version | Text Only | Print | Product List | Glossary Off
Versions: 1 2 3 4 5 6 7 8 9 10 11 12 13 14 15 16 17 18 19 20 21 22 23 24

000
FTUS43 KBIS 051500 AAB
TAFISN
TAF AMD
KISN 051500Z 0515/0612 32013G21KT P6SM VCSH OVC015
     FM051800 33019G29KT 2SM -SN BLSN OVC010
     FM052100 32021G31KT 2SM BLSN VCSH OVC010
     FM060400 31016G24KT 2SM BLSN OVC015
     FM061100 31012G20KT 6SM BLSN BKN025=

USA.gov is the U.S. government's official web portal to all federal, state and local government web resources and services.